Time;durP1;ratioP1;P1;durP2;ratioP2;P2;SDS_P1;SDS_P2;PMS_P1;PMS_P2;Temp;Humidity;BMP_temperature;BMP_pressure;BME280_temperature;BME280_humidity;BME280_pressure;Samples;Min_cycle;Max_cycle;Signal;HPM_P1;HPM_P2
2021/09/29 00:01:08;;;;;;;74.43;23.58;;;;;;;11.84;100.00;101308.78;2616168;36;20596;-64
2021/09/29 00:03:36;;;;;;;51.78;21.02;;;;;;;11.84;100.00;101306.22;2615750;31;20570;-64
2021/09/29 00:06:05;;;;;;;88.18;21.98;;;;;;;11.80;100.00;101306.91;2615819;36;20035;-61
2021/09/29 00:08:32;;;;;;;59.30;19.60;;;;;;;11.82;100.00;101305.28;2615634;31;20038;-63
2021/09/29 00:10:59;;;;;;;44.80;19.13;;;;;;;11.81;100.00;101303.53;2616079;31;20458;-64
2021/09/29 00:13:26;;;;;;;45.22;17.83;;;;;;;11.81;100.00;101298.38;2616143;36;20403;-62
2021/09/29 00:15:54;;;;;;;40.22;16.75;;;;;;;11.82;100.00;101300.16;2616687;36;20338;-64
2021/09/29 00:18:22;;;;;;;110.57;20.25;;;;;;;11.80;100.00;101294.09;2616599;36;20038;-65
2021/09/29 00:20:50;;;;;;;51.42;17.08;;;;;;;11.81;100.00;101294.97;2616905;31;20026;-65
2021/09/29 00:23:17;;;;;;;81.82;18.27;;;;;;;11.81;100.00;101290.69;2616996;31;20065;-63
2021/09/29 00:25:45;;;;;;;53.80;17.38;;;;;;;11.79;100.00;101284.66;2618139;36;20577;-63
2021/09/29 00:28:12;;;;;;;38.30;16.95;;;;;;;11.79;100.00;101279.53;2616938;31;20033;-63
2021/09/29 00:30:50;;;;;;;49.97;18.17;;;;;;;11.80;100.00;101285.53;2615845;36;20038;-63
2021/09/29 00:33:19;;;;;;;58.95;17.95;;;;;;;11.79;100.00;101281.22;2617029;31;20031;-63
2021/09/29 00:35:47;;;;;;;62.47;17.60;;;;;;;11.79;100.00;101281.22;2616787;36;20039;-62
2021/09/29 00:38:14;;;;;;;50.90;16.80;;;;;;;11.81;100.00;101277.00;2616457;31;20075;-61
2021/09/29 00:40:41;;;;;;;38.25;15.50;;;;;;;11.82;100.00;101277.06;2617043;31;20031;-60
2021/09/29 00:43:08;;;;;;;42.60;14.77;;;;;;;11.81;100.00;101280.44;2617216;31;20505;-60
2021/09/29 00:45:36;;;;;;;47.50;15.43;;;;;;;11.83;100.00;101281.41;2616634;31;20042;-58
2021/09/29 00:48:03;;;;;;;39.53;15.60;;;;;;;11.83;100.00;101277.94;2616200;36;20052;-60
2021/09/29 00:50:30;;;;;;;93.18;17.58;;;;;;;11.82;100.00;101276.16;2616631;36;20023;-63
2021/09/29 00:52:58;;;;;;;77.07;16.75;;;;;;;11.80;100.00;101273.56;2616464;36;20053;-63
2021/09/29 00:55:25;;;;;;;69.80;15.77;;;;;;;11.73;100.00;101261.34;2616489;36;20598;-63
2021/09/29 00:57:52;;;;;;;43.03;14.38;;;;;;;11.73;100.00;101263.91;2616375;36;20562;-59
2021/09/29 01:00:20;;;;;;;36.58;15.50;;;;;;;11.71;100.00;101263.88;2616703;31;20030;-64
2021/09/29 01:02:48;;;;;;;47.60;15.20;;;;;;;11.71;100.00;101263.03;2616773;31;20034;-58
2021/09/29 01:05:16;;;;;;;49.30;14.43;;;;;;;11.67;100.00;101256.06;2616676;31;20141;-63
2021/09/29 01:08:03;;;;;;;55.85;15.63;;;;;;;11.61;100.00;101261.00;2616492;31;20031;-63
2021/09/29 01:10:41;;;;;;;44.38;16.73;;;;;;;11.57;100.00;101246.34;2580198;36;2004577;-62
2021/09/29 01:13:18;;;;;;;55.70;17.08;;;;;;;11.55;100.00;101253.09;2617008;31;20031;-65
2021/09/29 01:15:48;;;;;;;52.28;17.83;;;;;;;11.52;100.00;101237.63;2616988;31;20551;-62
2021/09/29 01:18:20;;;;;;;47.58;16.98;;;;;;;11.55;100.00;101237.72;2616198;36;20033;-63
2021/09/29 01:20:53;;;;;;;64.32;18.77;;;;;;;11.56;100.00;101234.34;2616589;36;20035;-63
2021/09/29 01:23:28;;;;;;;56.67;19.45;;;;;;;11.57;100.00;101226.69;2616447;36;20100;-63
2021/09/29 01:25:58;;;;;;;50.65;18.25;;;;;;;11.58;100.00;101230.13;2616862;36;20022;-63
2021/09/29 01:28:35;;;;;;;83.15;18.73;;;;;;;11.59;100.00;101225.03;2616247;36;20027;-63
2021/09/29 01:31:03;;;;;;;47.55;17.88;;;;;;;11.59;100.00;101217.34;2580364;31;2004734;-63
2021/09/29 01:33:33;;;;;;;55.58;19.73;;;;;;;11.54;100.00;101212.91;2617118;36;20538;-63
2021/09/29 01:36:01;;;;;;;64.32;18.73;;;;;;;11.51;100.00;101215.34;2616049;36;20037;-61
2021/09/29 01:38:29;;;;;;;50.00;18.20;;;;;;;11.52;100.00;101209.44;2616020;36;20061;-60
2021/09/29 01:40:57;;;;;;;43.00;18.38;;;;;;;11.53;100.00;101213.72;2616153;36;20558;-63
2021/09/29 01:43:24;;;;;;;46.85;18.30;;;;;;;11.54;100.00;101216.31;2616125;36;20038;-63
2021/09/29 01:45:51;;;;;;;38.45;17.02;;;;;;;11.52;100.00;101210.28;2616791;31;20027;-62
2021/09/29 01:48:19;;;;;;;53.10;19.30;;;;;;;11.53;100.00;101212.03;2616183;31;20779;-63
2021/09/29 01:50:48;;;;;;;42.33;17.40;;;;;;;11.59;100.00;101213.91;2616488;31;20033;-61
2021/09/29 01:53:17;;;;;;;47.90;18.77;;;;;;;11.65;100.00;101209.84;2617118;31;20038;-61
2021/09/29 01:55:45;;;;;;;52.83;19.73;;;;;;;11.69;100.00;101219.38;2616262;36;20073;-63
2021/09/29 01:58:13;;;;;;;50.00;19.75;;;;;;;11.73;100.00;101213.47;2616157;36;20034;-64
2021/09/29 02:00:42;;;;;;;49.13;18.83;;;;;;;11.78;100.00;101217.88;2616610;36;20446;-63
2021/09/29 02:03:10;;;;;;;49.28;19.88;;;;;;;11.79;100.00;101210.25;2617634;31;20121;-62
2021/09/29 02:05:38;;;;;;;45.45;20.05;;;;;;;11.81;100.00;101211.16;2616023;36;20034;-62
2021/09/29 02:08:07;;;;;;;46.88;20.50;;;;;;;11.82;100.00;101201.75;2615370;36;20026;-55
2021/09/29 02:10:34;;;;;;;47.00;19.85;;;;;;;11.79;100.00;101194.84;2616341;36;20086;-58
2021/09/29 02:13:02;;;;;;;49.92;20.65;;;;;;;11.76;100.00;101192.19;2618098;36;20030;-56
2021/09/29 02:15:29;;;;;;;48.10;21.27;;;;;;;11.81;100.00;101187.19;2616769;36;20029;-54
2021/09/29 02:17:56;;;;;;;51.40;20.70;;;;;;;11.75;100.00;101185.31;2615888;36;20041;-55
2021/09/29 02:20:24;;;;;;;53.10;20.90;;;;;;;11.75;100.00;101182.75;2616241;36;20034;-58
2021/09/29 02:22:51;;;;;;;55.67;20.98;;;;;;;11.76;100.00;101176.78;2615939;36;20558;-55
2021/09/29 02:25:18;;;;;;;51.90;20.95;;;;;;;11.84;100.00;101179.63;2616015;36;20493;-52
2021/09/29 02:27:46;;;;;;;57.63;22.13;;;;;;;11.86;100.00;101180.50;2616603;31;20038;-52
2021/09/29 02:30:13;;;;;;;58.45;21.90;;;;;;;11.89;100.00;101181.47;2616166;36;20038;-54
2021/09/29 02:32:42;;;;;;;88.43;26.75;;;;;;;11.86;100.00;101171.13;2616235;36;20026;-57
2021/09/29 02:35:11;;;;;;;85.28;27.67;;;;;;;11.85;100.00;101176.22;2617717;31;20030;-52
2021/09/29 02:37:38;;;;;;;78.65;26.80;;;;;;;11.87;100.00;101171.97;2616464;31;20034;-54
2021/09/29 02:40:06;;;;;;;79.65;26.23;;;;;;;11.88;100.00;101169.47;2615383;36;20034;-56
2021/09/29 02:42:37;;;;;;;99.85;27.50;;;;;;;11.95;100.00;101166.25;2615963;36;20034;-57
2021/09/29 02:45:05;;;;;;;80.07;26.65;;;;;;;12.00;100.00;101163.81;2616647;31;20022;-54
2021/09/29 02:47:32;;;;;;;91.97;28.02;;;;;;;12.06;100.00;101166.53;2616672;36;20038;-54
2021/09/29 02:49:59;;;;;;;97.90;27.23;;;;;;;12.08;100.00;101171.72;2616654;31;20030;-55
2021/09/29 02:52:26;;;;;;;100.13;27.73;;;;;;;12.07;100.00;101163.16;2615997;36;20034;-58
2021/09/29 02:54:54;;;;;;;118.63;25.90;;;;;;;12.04;100.00;101157.94;2617344;31;20082;-55
2021/09/29 02:57:21;;;;;;;89.68;26.13;;;;;;;12.06;100.00;101158.81;2615904;36;20023;-53
2021/09/29 02:59:48;;;;;;;121.05;28.55;;;;;;;12.10;100.00;101164.91;2618123;31;20037;-55
2021/09/29 03:02:15;;;;;;;106.00;27.73;;;;;;;12.14;100.00;101152.19;2616690;36;20034;-58
2021/09/29 03:04:42;;;;;;;117.32;29.85;;;;;;;12.13;100.00;101153.03;2615836;36;20577;-53
2021/09/29 03:07:09;;;;;;;119.53;28.13;;;;;;;12.10;100.00;101146.94;2616471;31;20651;-54
2021/09/29 03:09:37;;;;;;;137.05;29.73;;;;;;;12.12;100.00;101150.44;2615956;31;20030;-53
2021/09/29 03:12:04;;;;;;;121.65;28.95;;;;;;;12.15;100.00;101147.94;2616529;36;20124;-56
2021/09/29 03:14:32;;;;;;;112.90;28.73;;;;;;;12.16;100.00;101149.69;2618018;36;20038;-56
2021/09/29 03:17:03;;;;;;;110.20;29.73;;;;;;;12.19;100.00;101150.63;2616090;36;20037;-55
2021/09/29 03:19:31;;;;;;;116.00;30.08;;;;;;;12.20;100.00;101142.13;2615883;36;20050;-56
2021/09/29 03:22:00;;;;;;;128.75;29.63;;;;;;;12.20;100.00;101141.22;2617349;31;20589;-54
2021/09/29 03:24:27;;;;;;;129.90;30.52;;;;;;;12.23;100.00;101144.75;2617989;36;20030;-56
2021/09/29 03:26:55;;;;;;;150.40;33.13;;;;;;;12.21;100.00;101138.72;2616662;36;20041;-59
2021/09/29 03:29:22;;;;;;;134.90;30.52;;;;;;;12.23;100.00;101139.59;2616004;36;20153;-58
2021/09/29 03:31:49;;;;;;;143.90;30.67;;;;;;;12.22;100.00;101135.31;2616238;31;20585;-58
2021/09/29 03:34:16;;;;;;;134.57;31.63;;;;;;;12.21;100.00;101128.44;2616681;36;20035;-58
2021/09/29 03:36:43;;;;;;;130.27;30.55;;;;;;;12.24;100.00;101136.22;2615536;36;20578;-55
2021/09/29 03:39:10;;;;;;;119.75;30.77;;;;;;;12.26;100.00;101132.84;2616328;36;20867;-56
2021/09/29 03:41:38;;;;;;;154.65;33.35;;;;;;;12.24;100.00;101118.22;2616870;31;20030;-59
2021/09/29 03:44:05;;;;;;;127.57;30.83;;;;;;;12.27;100.00;101120.03;2616566;31;20031;-57
2021/09/29 03:46:32;;;;;;;126.72;30.30;;;;;;;12.31;100.00;101115.84;2615943;36;20447;-58
2021/09/29 03:48:59;;;;;;;135.82;32.13;;;;;;;12.35;100.00;101123.66;2616232;36;20034;-55
2021/09/29 03:51:26;;;;;;;140.15;32.88;;;;;;;12.33;100.00;101115.03;2615681;36;20035;-56
2021/09/29 03:53:53;;;;;;;153.98;34.25;;;;;;;12.32;100.00;101121.00;2616501;36;20037;-57
2021/09/29 03:56:21;;;;;;;125.40;34.33;;;;;;;12.37;100.00;101111.72;2616545;31;20029;-54
2021/09/29 03:58:48;;;;;;;117.72;31.25;;;;;;;12.38;100.00;101110.00;2616794;36;20042;-54
2021/09/29 04:01:15;;;;;;;137.45;33.60;;;;;;;12.39;100.00;101107.50;2617061;31;20507;-55
2021/09/29 04:03:43;;;;;;;134.43;34.75;;;;;;;12.43;100.00;101106.75;2617290;36;20435;-58
2021/09/29 04:06:10;;;;;;;141.10;35.42;;;;;;;12.43;100.00;101104.19;2616586;31;20038;-58
2021/09/29 04:08:37;;;;;;;134.85;34.45;;;;;;;12.46;100.00;101100.81;2616627;31;20046;-53
2021/09/29 04:11:07;;;;;;;133.93;34.75;;;;;;;12.47;100.00;101105.97;2617076;31;20031;-56
2021/09/29 04:13:35;;;;;;;134.38;33.85;;;;;;;12.51;100.00;101103.47;2616295;36;21029;-58
2021/09/29 04:16:04;;;;;;;147.27;37.03;;;;;;;12.48;100.00;101099.16;2617232;31;20054;-57
2021/09/29 04:18:31;;;;;;;131.57;34.92;;;;;;;12.51;100.00;101103.47;2618775;31;20061;-52
2021/09/29 04:20:58;;;;;;;136.93;35.40;;;;;;;12.54;100.00;101103.56;2616525;36;20042;-58
2021/09/29 04:23:26;;;;;;;138.57;36.47;;;;;;;12.51;100.00;101099.22;2616544;36;20037;-54
2021/09/29 04:25:54;;;;;;;150.80;40.65;;;;;;;12.51;100.00;101095.78;2617647;31;20151;-53
2021/09/29 04:28:21;;;;;;;141.82;36.85;;;;;;;12.55;100.00;101092.47;2616121;36;20033;-54
2021/09/29 04:30:48;;;;;;;145.82;38.20;;;;;;;12.60;100.00;101080.59;2616095;36;20034;-58
2021/09/29 04:33:16;;;;;;;145.23;39.13;;;;;;;12.62;100.00;101087.50;2616513;36;20099;-56
2021/09/29 04:35:43;;;;;;;145.27;37.90;;;;;;;12.61;100.00;101084.88;2619937;31;20446;-59
2021/09/29 04:38:11;;;;;;;149.20;40.72;;;;;;;12.59;100.00;101079.72;2616097;36;20053;-58
2021/09/29 04:40:38;;;;;;;151.95;41.10;;;;;;;12.62;100.00;101077.25;2617032;31;20050;-55
2021/09/29 04:43:06;;;;;;;144.75;39.30;;;;;;;12.60;100.00;101066.03;2616181;36;20035;-57
2021/09/29 04:45:33;;;;;;;134.23;36.97;;;;;;;12.62;100.00;101059.25;2615639;31;20049;-56
2021/09/29 04:48:03;;;;;;;153.85;40.45;;;;;;;12.65;100.00;101066.13;2615346;36;20030;-54
2021/09/29 04:50:31;;;;;;;144.70;39.92;;;;;;;12.64;100.00;101060.13;2616138;31;20053;-54
2021/09/29 04:52:58;;;;;;;152.73;39.10;;;;;;;12.67;100.00;101051.66;2619427;36;20038;-58
2021/09/29 04:55:26;;;;;;;141.13;39.85;;;;;;;12.68;100.00;101059.38;2622688;36;20042;-58
2021/09/29 04:57:53;;;;;;;131.93;38.17;;;;;;;12.66;100.00;101055.91;2618169;36;20038;-57
2021/09/29 05:00:20;;;;;;;124.55;37.90;;;;;;;12.71;100.00;101058.56;2616890;36;20042;-51
2021/09/29 05:02:49;;;;;;;138.43;38.55;;;;;;;12.75;100.00;101065.50;2616687;36;20053;-59
2021/09/29 05:05:17;;;;;;;149.90;39.55;;;;;;;12.77;100.00;101068.13;2618573;31;20598;-54
2021/09/29 05:07:50;;;;;;;128.45;37.33;;;;;;;12.75;100.00;101068.09;2616338;31;20041;-58
2021/09/29 05:10:38;;;;;;;142.15;40.33;;;;;;;12.81;100.00;101067.38;2616294;31;20041;-58
2021/09/29 05:13:11;;;;;;;133.20;36.72;;;;;;;12.83;100.00;101068.28;2580081;36;2004572;-55
2021/09/29 05:15:38;;;;;;;131.95;36.85;;;;;;;12.81;100.00;101060.53;2616947;36;20479;-55
2021/09/29 05:18:05;;;;;;;128.57;37.22;;;;;;;12.83;100.00;101063.13;2616927;36;20030;-60
2021/09/29 05:20:32;;;;;;;126.70;37.30;;;;;;;12.82;100.00;101062.25;2616078;36;20038;-58
2021/09/29 05:22:59;;;;;;;134.05;37.55;;;;;;;12.85;100.00;101059.78;2617026;31;20460;-58
2021/09/29 05:25:26;;;;;;;126.50;38.15;;;;;;;12.88;100.00;101054.69;2616540;31;20041;-61
2021/09/29 05:27:55;;;;;;;130.70;36.85;;;;;;;12.89;100.00;101064.13;2616293;36;20033;-60
2021/09/29 05:30:22;;;;;;;127.68;37.92;;;;;;;12.92;100.00;101048.78;2617239;31;20038;-55
2021/09/29 05:32:49;;;;;;;132.73;37.05;;;;;;;12.92;100.00;101041.06;2617544;31;20042;-61
2021/09/29 05:35:17;;;;;;;121.90;36.88;;;;;;;13.00;100.00;101042.09;2616266;36;20046;-59
2021/09/29 05:37:44;;;;;;;124.65;34.75;;;;;;;12.99;100.00;101040.38;2616794;31;20574;-62
2021/09/29 05:40:11;;;;;;;130.20;37.88;;;;;;;13.00;100.00;101030.97;2616692;31;20041;-56
2021/09/29 05:42:38;;;;;;;122.45;36.80;;;;;;;13.02;100.00;101036.13;2616558;36;20042;-59
2021/09/29 05:45:06;;;;;;;124.03;37.22;;;;;;;13.07;100.00;101037.94;2616216;36;20034;-61
2021/09/29 05:47:34;;;;;;;133.93;37.35;;;;;;;13.08;100.00;101039.72;2616948;36;20168;-59
2021/09/29 05:50:05;;;;;;;124.20;37.58;;;;;;;13.11;100.00;101029.47;2616535;36;20041;-61
2021/09/29 05:52:32;;;;;;;128.95;38.03;;;;;;;13.11;100.00;101034.59;2616828;36;20042;-58
2021/09/29 05:54:59;;;;;;;130.27;36.63;;;;;;;13.14;100.00;101029.53;2616505;36;20037;-57
2021/09/29 05:57:27;;;;;;;116.55;38.58;;;;;;;13.22;100.00;101029.75;2616465;36;20035;-59
2021/09/29 05:59:54;;;;;;;120.70;37.60;;;;;;;13.23;100.00;101034.91;2617895;31;20553;-57
2021/09/29 06:02:21;;;;;;;119.30;37.63;;;;;;;13.24;100.00;101028.06;2616530;31;20034;-56
2021/09/29 06:04:48;;;;;;;119.28;36.35;;;;;;;13.23;100.00;101026.31;2615943;31;20038;-61
2021/09/29 06:07:17;;;;;;;129.73;39.30;;;;;;;13.24;100.00;101031.50;2615764;36;20073;-59
2021/09/29 06:09:44;;;;;;;124.05;38.85;;;;;;;13.30;100.00;101028.16;2617274;31;20035;-59
2021/09/29 06:12:13;;;;;;;119.63;39.88;;;;;;;13.33;100.00;101024.81;2615713;31;20027;-61
2021/09/29 06:14:48;;;;;;;122.90;39.05;;;;;;;13.37;100.00;101027.47;2615996;36;20034;-59
2021/09/29 06:17:23;;;;;;;121.47;38.65;;;;;;;13.35;100.00;101013.69;2616703;31;20361;-62
2021/09/29 06:19:53;;;;;;;126.53;39.33;;;;;;;13.41;100.00;101008.69;2616727;31;20565;-60
2021/09/29 06:22:23;;;;;;;114.70;38.45;;;;;;;13.48;100.00;101007.06;2616146;36;20207;-60
2021/09/29 06:24:50;;;;;;;111.65;38.63;;;;;;;13.53;100.00;101009.75;2618386;31;20061;-57
2021/09/29 06:27:17;;;;;;;117.00;39.25;;;;;;;13.49;100.00;101011.38;2616102;36;20029;-62
2021/09/29 06:29:45;;;;;;;105.18;37.47;;;;;;;13.50;100.00;100998.56;2616524;36;20062;-59
2021/09/29 06:32:12;;;;;;;105.30;37.60;;;;;;;13.55;100.00;101000.38;2616629;36;20027;-60
2021/09/29 06:34:39;;;;;;;102.85;37.40;;;;;;;13.60;100.00;100994.44;2616322;36;20030;-62
2021/09/29 06:37:07;;;;;;;106.90;38.05;;;;;;;13.61;100.00;100987.59;2616106;36;20455;-58
2021/09/29 06:39:34;;;;;;;108.25;37.13;;;;;;;13.66;100.00;100986.84;2616378;36;20470;-61
2021/09/29 06:42:02;;;;;;;104.80;37.28;;;;;;;13.72;100.00;100984.34;2616190;31;20074;-59
2021/09/29 06:44:31;;;;;;;100.40;37.15;;;;;;;13.79;100.00;100976.75;2617264;36;20042;-62
2021/09/29 06:47:01;;;;;;;101.68;35.65;;;;;;;13.88;100.00;100990.66;2616703;36;20443;-59
2021/09/29 06:49:29;;;;;;;89.95;36.38;;;;;;;13.87;100.00;100977.75;2615884;31;20034;-62
2021/09/29 06:51:56;;;;;;;101.32;35.22;;;;;;;13.88;100.00;100972.63;2616652;31;20035;-60
2021/09/29 06:54:24;;;;;;;92.38;36.50;;;;;;;13.89;100.00;100971.78;2615365;36;20026;-57
2021/09/29 06:56:51;;;;;;;94.80;37.40;;;;;;;13.97;100.00;100966.78;2615638;31;20034;-61
2021/09/29 06:59:18;;;;;;;88.90;33.40;;;;;;;14.02;100.00;100962.56;2617611;31;20030;-61
2021/09/29 07:01:47;;;;;;;94.07;34.60;;;;;;;14.13;100.00;100973.03;2616365;31;20030;-61
2021/09/29 07:04:14;;;;;;;90.90;32.53;;;;;;;14.17;100.00;100964.50;2615712;36;20034;-59
2021/09/29 07:06:41;;;;;;;82.65;34.03;;;;;;;14.11;100.00;100962.69;2615178;36;20585;-62
2021/09/29 07:09:08;;;;;;;79.72;32.95;;;;;;;14.19;100.00;100962.81;2616107;36;20030;-61
2021/09/29 07:11:36;;;;;;;86.00;33.97;;;;;;;14.27;100.00;100949.19;2617034;31;20438;-60
2021/09/29 07:14:03;;;;;;;81.07;34.40;;;;;;;14.32;100.00;100959.56;2616447;36;20038;-61
2021/09/29 07:16:30;;;;;;;85.50;34.45;;;;;;;14.42;100.00;100953.72;2616511;36;20034;-62
2021/09/29 07:19:02;;;;;;;83.80;35.42;;;;;;;14.45;100.00;100952.88;2616041;31;20034;-61
2021/09/29 07:21:30;;;;;;;77.68;34.60;;;;;;;14.55;100.00;100948.75;2615821;36;20065;-61
2021/09/29 07:23:57;;;;;;;82.22;34.47;;;;;;;14.67;100.00;100941.19;2615971;31;20042;-61
2021/09/29 07:26:25;;;;;;;85.85;34.15;;;;;;;14.70;100.00;100941.25;2615769;31;20030;-61
2021/09/29 07:28:52;;;;;;;72.22;33.03;;;;;;;14.73;100.00;100938.69;2616601;36;20037;-61
2021/09/29 07:31:19;;;;;;;70.25;32.25;;;;;;;14.84;100.00;100934.56;2617376;31;20034;-61
2021/09/29 07:33:47;;;;;;;72.43;34.30;;;;;;;14.82;100.00;100931.06;2618150;31;20089;-62
2021/09/29 07:36:14;;;;;;;75.30;34.00;;;;;;;14.93;100.00;100926.94;2616446;36;20034;-59
2021/09/29 07:38:42;;;;;;;75.70;34.25;;;;;;;14.91;100.00;100936.34;2616763;36;20629;-61
2021/09/29 07:41:10;;;;;;;69.72;33.75;;;;;;;14.98;100.00;100933.00;2617356;31;20034;-62
2021/09/29 07:43:37;;;;;;;71.03;35.45;;;;;;;15.14;100.00;100933.16;2617465;31;20034;-62
2021/09/29 07:46:04;;;;;;;67.93;33.13;;;;;;;15.12;100.00;100937.44;2616341;36;20034;-61
2021/09/29 07:48:32;;;;;;;70.95;34.15;;;;;;;15.17;100.00;100933.19;2616594;36;20042;-58
2021/09/29 07:51:01;;;;;;;71.60;35.25;;;;;;;15.23;100.00;100928.09;2616869;36;20030;-60
2021/09/29 07:53:28;;;;;;;67.68;34.30;;;;;;;15.26;100.00;100923.84;2617679;31;20042;-58
2021/09/29 07:55:56;;;;;;;69.45;36.13;;;;;;;15.31;100.00;100928.19;2617057;31;20026;-59
2021/09/29 07:58:25;;;;;;;70.07;34.70;;;;;;;15.28;100.00;100918.69;2616492;36;20581;-61
2021/09/29 08:00:52;;;;;;;75.72;36.75;;;;;;;15.39;100.00;100909.34;2616993;31;20538;-59
2021/09/29 08:03:20;;;;;;;72.72;36.45;;;;;;;15.42;100.00;100911.94;2616347;31;20193;-61
2021/09/29 08:05:47;;;;;;;66.30;33.70;;;;;;;15.58;100.00;100907.81;2616852;31;20031;-59
2021/09/29 08:08:14;;;;;;;62.10;34.53;;;;;;;15.72;100.00;100908.81;2616937;31;20035;-59
2021/09/29 08:10:41;;;;;;;69.68;35.70;;;;;;;15.72;100.00;100903.66;2616879;31;20038;-58
2021/09/29 08:13:09;;;;;;;63.35;35.25;;;;;;;15.72;100.00;100907.94;2616245;36;20034;-56
2021/09/29 08:15:36;;;;;;;72.53;36.63;;;;;;;15.79;100.00;100904.53;2616388;36;20026;-59
2021/09/29 08:18:03;;;;;;;64.53;34.33;;;;;;;16.02;100.00;100907.31;2616148;36;20030;-62
2021/09/29 08:20:34;;;;;;;66.60;36.05;;;;;;;16.03;100.00;100909.88;2616795;36;20065;-60
2021/09/29 08:23:12;;;;;;;61.50;34.30;;;;;;;16.04;100.00;100903.03;2580016;32;2004512;-62
2021/09/29 08:28:55;;;;;;;68.75;37.80;;;;;;;15.87;100.00;100909.78;2616999;31;20430;-60
2021/09/29 08:31:34;;;;;;;67.30;34.58;;;;;;;15.68;100.00;100904.47;2580213;36;2004357;-59
2021/09/29 08:34:17;;;;;;;66.22;35.55;;;;;;;15.66;100.00;100890.66;2616933;31;20566;-60
2021/09/29 08:39:16;;;;;;;60.42;33.22;;;;;;;15.60;100.00;100895.75;2616900;36;20434;-61
2021/09/29 08:44:30;;;;;;;60.47;34.65;;;;;;;15.54;100.00;100898.28;2616127;36;20031;-60
2021/09/29 09:17:04;;;;;;;55.40;31.73;;;;;;;15.89;100.00;100879.66;2543607;36;2004341;-63
2021/09/29 09:19:31;;;;;;;51.95;30.50;;;;;;;15.79;100.00;100877.00;2616560;31;20034;-61
2021/09/29 09:22:02;;;;;;;50.22;29.27;;;;;;;15.81;100.00;100882.19;2617132;31;20061;-58
2021/09/29 09:24:32;;;;;;;49.90;28.95;;;;;;;15.77;100.00;100898.53;2616039;36;20034;-58
2021/09/29 09:27:05;;;;;;;48.28;29.58;;;;;;;15.72;100.00;100901.06;2615785;36;20074;-61
2021/09/29 09:29:47;;;;;;;50.47;29.27;;;;;;;15.69;100.00;100906.19;2579684;36;2004387;-61
2021/09/29 09:32:17;;;;;;;62.63;32.72;;;;;;;15.42;100.00;100916.25;2616555;31;20022;-59
2021/09/29 09:34:45;;;;;;;100.60;43.05;;;;;;;15.60;100.00;100897.47;2615479;36;20430;-58
2021/09/29 09:37:15;;;;;;;100.25;47.05;;;;;;;-145.42;100.00;56955.94;2615759;31;20041;-58
2021/09/29 09:39:43;;;;;;;121.28;50.40;;;;;;;-145.42;100.00;56955.94;2615580;36;20038;-59
2021/09/29 09:42:11;;;;;;;112.53;49.80;;;;;;;-145.42;100.00;56955.94;2615511;36;20034;-61
2021/09/29 09:44:42;;;;;;;134.02;53.58;;;;;;;-145.42;100.00;56955.94;2615576;36;20027;-61
2021/09/29 14:29:16;;;;;;;44.15;28.13;;;;;;;-145.42;100.00;56955.94;2508083;31;2004925;-63
2021/09/29 14:33:05;;;;;;;37.35;24.92;;;;;;;-145.42;100.00;56955.94;2545578;31;2004901;-63
2021/09/29 14:36:31;;;;;;;27.42;20.52;;;;;;;-145.42;100.00;56955.94;2507605;36;2005039;-62
2021/09/29 14:39:57;;;;;;;18.90;15.38;;;;;;;-145.42;100.00;56955.94;2543669;36;2004385;-61
2021/09/29 14:43:23;;;;;;;21.40;16.98;;;;;;;-145.42;100.00;56955.94;2544115;31;2004991;-64
2021/09/29 14:46:49;;;;;;;22.85;16.85;;;;;;;-145.42;100.00;56955.94;2544015;31;2004952;-63
2021/09/29 14:50:15;;;;;;;20.92;17.55;;;;;;;-145.42;100.00;56955.94;2541997;36;2004958;-64
2021/09/29 14:53:41;;;;;;;21.30;15.73;;;;;;;-145.42;100.00;56955.94;2544417;31;2004828;-63
2021/09/29 14:57:11;;;;;;;16.38;14.48;;;;;;;-145.42;100.00;56955.94;2543914;31;2004380;-63
2021/09/29 15:00:37;;;;;;;16.83;14.27;;;;;;;-145.42;100.00;56955.94;2542534;36;2005011;-61
2021/09/29 15:04:06;;;;;;;14.55;12.57;;;;;;;-145.42;100.00;56955.94;2543027;36;2005001;-63
2021/09/29 15:07:31;;;;;;;19.10;13.95;;;;;;;-145.42;100.00;56955.94;2579574;36;2004379;-63
2021/09/29 15:10:57;;;;;;;19.80;14.35;;;;;;;-145.42;100.00;56955.94;2544115;31;2004223;-63
2021/09/29 15:18:10;;;;;;;21.23;15.63;;;;;;;-145.42;100.00;56955.94;2507267;36;2004736;-63
2021/09/29 15:25:31;;;;;;;22.13;17.00;;;;;;;-145.42;100.00;56955.94;2579545;36;2004427;-62
2021/09/29 15:50:46;;;;;;;24.95;18.65;;;;;;;-145.42;100.00;56955.94;2545013;31;2004947;-62
2021/09/29 16:23:02;;;;;;;36.15;25.10;;;;;;;-145.42;100.00;56955.94;2508358;31;2004818;-62
2021/09/29 16:30:19;;;;;;;38.28;25.25;;;;;;;-145.42;100.00;56955.94;2507679;31;2004940;-62
2021/09/29 16:37:15;;;;;;;47.67;30.95;;;;;;;-145.42;100.00;56955.94;2544317;36;2004414;-70
2021/09/29 16:40:41;;;;;;;47.55;29.85;;;;;;;-145.42;100.00;56955.94;2544245;36;2004392;-63
2021/09/29 16:44:08;;;;;;;50.92;31.50;;;;;;;-145.42;100.00;56955.94;2536578;36;2004687;31
2021/09/29 16:47:34;;;;;;;51.30;31.83;;;;;;;-145.42;100.00;56955.94;2616866;36;20766;-45
2021/09/29 16:51:22;;;;;;;57.05;31.10;;;;;;;-145.42;100.00;56955.94;2544955;31;2004892;-51
2021/09/29 16:55:02;;;;;;;56.00;33.33;;;;;;;-145.42;100.00;56955.94;2508065;36;2004903;-49
2021/09/29 16:58:33;;;;;;;58.03;32.05;;;;;;;-145.42;100.00;56955.94;2544485;31;2005031;-49
2021/09/29 17:02:03;;;;;;;49.92;31.00;;;;;;;-145.42;100.00;56955.94;2546668;31;2005229;-49
2021/09/29 17:05:29;;;;;;;53.70;31.75;;;;;;;-145.42;100.00;56955.94;2545013;36;2005190;-48
2021/09/29 17:08:54;;;;;;;63.95;33.67;;;;;;;-145.42;100.00;56955.94;2544060;36;2005612;-48
2021/09/29 17:12:22;;;;;;;58.72;32.65;;;;;;;-145.42;100.00;56955.94;2543812;36;2004944;-49
2021/09/29 17:15:50;;;;;;;66.88;38.35;;;;;;;-145.42;100.00;56955.94;2545105;31;2005002;-50
2021/09/29 17:19:25;;;;;;;61.65;34.42;;;;;;;-145.42;100.00;56955.94;2544323;31;2005147;-49
2021/09/29 17:22:59;;;;;;;62.95;34.60;;;;;;;-145.42;100.00;56955.94;2544999;31;2004715;-49
2021/09/29 17:26:25;;;;;;;71.05;37.83;;;;;;;-145.42;100.00;56955.94;2543813;36;2004853;-45
2021/09/29 17:29:56;;;;;;;68.78;37.30;;;;;;;-145.42;100.00;56955.94;2543967;31;2004906;-47
2021/09/29 17:37:30;;;;;;;76.72;39.35;;;;;;;-145.42;100.00;56955.94;2507353;36;2005032;-49
2021/09/29 17:52:17;;;;;;;98.13;53.63;;;;;;;-145.42;100.00;56955.94;2544067;31;2005748;-47
2021/09/29 17:55:44;;;;;;;80.90;41.55;;;;;;;-145.42;100.00;56955.94;2508440;31;2006088;-47
2021/09/29 17:59:13;;;;;;;83.13;39.95;;;;;;;-145.42;100.00;56955.94;2544542;36;2004938;-48
2021/09/29 18:06:22;;;;;;;92.00;40.42;;;;;;;-145.42;100.00;56955.94;2506857;36;2004889;-48
2021/09/29 18:09:51;;;;;;;79.75;39.40;;;;;;;-145.42;100.00;56955.94;2544465;31;2004849;-46
2021/09/29 18:13:19;;;;;;;87.00;40.65;;;;;;;-145.42;100.00;56955.94;2542632;36;2005055;-50
2021/09/29 18:16:45;;;;;;;80.70;39.75;;;;;;;-145.42;100.00;56955.94;2543550;31;2004788;-48
2021/09/29 18:20:12;;;;;;;85.88;40.85;;;;;;;-145.42;100.00;56955.94;2546287;31;2005054;-47
2021/09/29 18:23:38;;;;;;;83.07;40.08;;;;;;;-145.42;100.00;56955.94;2580180;36;2004294;-48
2021/09/29 18:27:14;;;;;;;68.07;36.75;;;;;;;-145.42;100.00;56955.94;2507821;31;2005096;-46
2021/09/29 18:30:43;;;;;;;75.88;39.30;;;;;;;-145.42;100.00;56955.94;2545628;36;2004771;-47